Map

Track Data

SID SEASON NUMBER BASIN SUBBASIN NAME ISO_TIME NATURE LAT LON WMO_WIND WMO_PRES WMO_AGENCY TRACK_TYPE DIST2LAND LANDFALL IFLAG USA_AGENCY USA_ATCF_ID USA_LAT USA_LON USA_RECORD USA_STATUS USA_WIND USA_PRES USA_SSHS USA_R34_NE USA_R34_SE USA_R34_SW USA_R34_NW USA_R50_NE USA_R50_SE USA_R50_SW USA_R50_NW USA_R64_NE USA_R64_SE USA_R64_SW USA_R64_NW USA_POCI USA_ROCI USA_RMW USA_EYE TOKYO_LAT TOKYO_LON TOKYO_GRADE TOKYO_WIND TOKYO_PRES TOKYO_R50_DIR TOKYO_R50_LONG TOKYO_R50_SHORT TOKYO_R30_DIR TOKYO_R30_LONG TOKYO_R30_SHORT TOKYO_LAND CMA_LAT CMA_LON CMA_CAT CMA_WIND CMA_PRES HKO_LAT HKO_LON HKO_CAT HKO_WIND HKO_PRES NEWDELHI_LAT NEWDELHI_LON NEWDELHI_GRADE NEWDELHI_WIND NEWDELHI_PRES NEWDELHI_CI NEWDELHI_DP NEWDELHI_POCI REUNION_LAT REUNION_LON REUNION_TYPE REUNION_WIND REUNION_PRES REUNION_TNUM REUNION_CI REUNION_RMW REUNION_R34_NE REUNION_R34_SE REUNION_R34_SW REUNION_R34_NW REUNION_R50_NE REUNION_R50_SE REUNION_R50_SW REUNION_R50_NW REUNION_R64_NE REUNION_R64_SE REUNION_R64_SW REUNION_R64_NW BOM_LAT BOM_LON BOM_TYPE BOM_WIND BOM_PRES BOM_TNUM BOM_CI BOM_RMW BOM_R34_NE BOM_R34_SE BOM_R34_SW BOM_R34_NW BOM_R50_NE BOM_R50_SE BOM_R50_SW BOM_R50_NW BOM_R64_NE BOM_R64_SE BOM_R64_SW BOM_R64_NW BOM_ROCI BOM_POCI BOM_EYE BOM_POS_METHOD BOM_PRES_METHOD NADI_LAT NADI_LON NADI_CAT NADI_WIND NADI_PRES WELLINGTON_LAT WELLINGTON_LON WELLINGTON_WIND WELLINGTON_PRES DS824_LAT DS824_LON DS824_STAGE DS824_WIND DS824_PRES TD9636_LAT TD9636_LON TD9636_STAGE TD9636_WIND TD9636_PRES TD9635_LAT TD9635_LON TD9635_WIND TD9635_PRES TD9635_ROCI NEUMANN_LAT NEUMANN_LON NEUMANN_CLASS NEUMANN_WIND NEUMANN_PRES MLC_LAT MLC_LON MLC_CLASS MLC_WIND MLC_PRES USA_GUST BOM_GUST BOM_GUST_PER REUNION_GUST REUNION_GUST_PER USA_SEAHGT USA_SEARAD_NE USA_SEARAD_SE USA_SEARAD_SW USA_SEARAD_NW STORM_SPEED STORM_DIR
1992113N24301 1992 32 NA NA NOT_NAMED 1992-04-21 12:00:00 SS 24.0000 -59.0000 25 1006 hurdat_atl main 927 897 O_____________ hurdat_atl AL011992 24.0000 -59.0000 SD 25 1006 -2 9 282
1992113N24301 1992 32 NA NA NOT_NAMED 1992-04-21 15:00:00 SS 24.0926 -59.4875 main 897 869 P_____________ AL011992 24.0926 -59.4875 SD 25 1005 -2 9 282
1992113N24301 1992 32 NA NA NOT_NAMED 1992-04-21 18:00:00 SS 24.2000 -60.0000 25 1005 hurdat_atl main 869 844 O_____________ hurdat_atl AL011992 24.2000 -60.0000 SD 25 1005 -2 10 284
1992113N24301 1992 32 NA NA NOT_NAMED 1992-04-21 21:00:00 SS 24.3351 -60.5374 main 844 828 P_____________ AL011992 24.3351 -60.5374 SD 27 1004 -2 10 288
1992113N24301 1992 32 NA NA NOT_NAMED 1992-04-22 00:00:00 SS 24.5000 -61.0000 30 1003 hurdat_atl main 831 825 O_____________ hurdat_atl AL011992 24.5000 -61.0000 SD 30 1003 -2 8 298
1992113N24301 1992 32 NA NA NOT_NAMED 1992-04-22 03:00:00 SS 24.6997 -61.2876 main 832 832 P_____________ AL011992 24.6997 -61.2876 SD 37 1002 -2 6 311
1992113N24301 1992 32 NA NA NOT_NAMED 1992-04-22 06:00:00 SS 24.9000 -61.5000 45 1002 hurdat_atl main 841 835 O_____________ hurdat_atl AL011992 24.9000 -61.5000 SS 45 1002 -2 6 310
1992113N24301 1992 32 NA NA NOT_NAMED 1992-04-22 09:00:00 SS 25.0575 -61.7576 main 845 840 P_____________ AL011992 25.0575 -61.7576 SS 45 1002 -2 5 304
1992113N24301 1992 32 NA NA NOT_NAMED 1992-04-22 12:00:00 SS 25.2000 -62.0000 45 1002 hurdat_atl main 846 841 O_____________ hurdat_atl AL011992 25.2000 -62.0000 SS 45 1002 -2 5 308
1992113N24301 1992 32 NA NA NOT_NAMED 1992-04-22 15:00:00 SS 25.3648 -62.1851 main 857 853 P_____________ AL011992 25.3648 -62.1851 SS 45 1002 -2 5 310
1992113N24301 1992 32 NA NA NOT_NAMED 1992-04-22 18:00:00 SS 25.5000 -62.4000 45 1003 hurdat_atl main 859 851 O_____________ hurdat_atl AL011992 25.5000 -62.4000 SS 45 1003 -2 6 292
1992113N24301 1992 32 NA NA NOT_NAMED 1992-04-22 21:00:00 SS 25.5727 -62.7500 main 855 845 P_____________ AL011992 25.5727 -62.7500 SS 45 1003 -2 6 279
1992113N24301 1992 32 NA NA NOT_NAMED 1992-04-23 00:00:00 SS 25.6000 -63.1000 45 1004 hurdat_atl main 845 839 O_____________ hurdat_atl AL011992 25.6000 -63.1000 SS 45 1004 -2 5 274
1992113N24301 1992 32 NA NA NOT_NAMED 1992-04-23 03:00:00 SS 25.6074 -63.3376 main 839 833 P_____________ AL011992 25.6074 -63.3376 SS 42 1004 -2 4 270
1992113N24301 1992 32 NA NA NOT_NAMED 1992-04-23 06:00:00 SS 25.6000 -63.5000 40 1005 hurdat_atl main 833 830 O_____________ hurdat_atl AL011992 25.6000 -63.5000 SS 40 1005 -2 3 267
1992113N24301 1992 32 NA NA NOT_NAMED 1992-04-23 09:00:00 SS 25.5925 -63.6450 main 830 828 P_____________ AL011992 25.5925 -63.6450 SS 37 1006 -2 2 270
1992113N24301 1992 32 NA NA NOT_NAMED 1992-04-23 12:00:00 SS 25.6000 -63.7000 35 1008 hurdat_atl main 828 828 O_____________ hurdat_atl AL011992 25.6000 -63.7000 SS 35 1008 -2 1 0
1992113N24301 1992 32 NA NA NOT_NAMED 1992-04-23 15:00:00 SS 25.6500 -63.6450 main 830 830 P_____________ AL011992 25.6500 -63.6450 SS 32 1008 -2 2 61
1992113N24301 1992 32 NA NA NOT_NAMED 1992-04-23 18:00:00 SS 25.7000 -63.5000 30 1008 hurdat_atl main 844 844 O_____________ hurdat_atl AL011992 25.7000 -63.5000 SD 30 1008 -2 3 79
1992113N24301 1992 32 NA NA NOT_NAMED 1992-04-23 21:00:00 SS 25.7075 -63.3225 main 849 849 P_____________ AL011992 25.7075 -63.3225 SD 27 1008 -2 4 90
1992113N24301 1992 32 NA NA NOT_NAMED 1992-04-24 00:00:00 SS 25.7000 -63.1000 25 1009 hurdat_atl main 855 855 O_____________ hurdat_atl AL011992 25.7000 -63.1000 SD 25 1009 -2 4 91
1992113N24301 1992 32 NA NA NOT_NAMED 1992-04-24 03:00:00 SS 25.7000 -62.8650 main 862 862 P_____________ AL011992 25.7000 -62.8650 SD 25 1009 -2 5 90
1992113N24301 1992 32 NA NA NOT_NAMED 1992-04-24 06:00:00 SS 25.7000 -62.6000 25 1009 hurdat_atl main 872 872 O_____________ hurdat_atl AL011992 25.7000 -62.6000 SD 25 1009 -2 5 90
1992113N24301 1992 32 NA NA NOT_NAMED 1992-04-24 09:00:00 SS 25.6998 -62.3300 main 883 883 P_____________ AL011992 25.6998 -62.3300 SD 25 1009 -2 5 90
1992113N24301 1992 32 NA NA NOT_NAMED 1992-04-24 12:00:00 SS 25.7000 -62.0000 25 1010 hurdat_atl main 896 896 O_____________ hurdat_atl AL011992 25.7000 -62.0000 SD 25 1010 -2 7 90
1992113N24301 1992 32 NA NA NOT_NAMED 1992-04-24 15:00:00 SS 25.7004 -61.5775 main 914 914 P_____________ AL011992 25.7004 -61.5775 SD 25 1010 -2 8 90
1992113N24301 1992 32 NA NA NOT_NAMED 1992-04-24 18:00:00 SS 25.7000 -61.1000 25 1010 hurdat_atl main 938 O_____________ hurdat_atl AL011992 25.7000 -61.1000 SD 25 1010 -2 9 90

About IBTrACS Database

This database is a web-friendly format of International Best Track Archive for Climate Stewardship (IBTrACS), a global best track data archive curated by NOAA dating back to 1842.

Updated: 2021-12-03